sensor_id;sensor_type;location;lat;lon;timestamp;P1;durP1;ratioP1;P2;durP2;ratioP2
65753;SDS011;52488;47.502;18.940;2023-02-13T00:00:33;11.52;;;5.80;;
65753;SDS011;52488;47.502;18.940;2023-02-13T00:01:37;12.52;;;6.03;;
65753;SDS011;52488;47.502;18.940;2023-02-13T00:02:40;11.70;;;5.80;;
65753;SDS011;52488;47.502;18.940;2023-02-13T00:03:43;10.63;;;5.57;;
65753;SDS011;52488;47.502;18.940;2023-02-13T00:04:46;9.95;;;5.70;;
65753;SDS011;52488;47.502;18.940;2023-02-13T00:05:49;13.30;;;6.07;;
65753;SDS011;52488;47.502;18.940;2023-02-13T00:06:52;13.98;;;5.90;;
65753;SDS011;52488;47.502;18.940;2023-02-13T00:07:55;10.93;;;5.72;;
65753;SDS011;52488;47.502;18.940;2023-02-13T00:08:58;10.77;;;6.07;;
65753;SDS011;52488;47.502;18.940;2023-02-13T00:10:02;9.70;;;5.53;;
65753;SDS011;52488;47.502;18.940;2023-02-13T00:11:05;10.05;;;5.70;;
65753;SDS011;52488;47.502;18.940;2023-02-13T00:12:08;13.70;;;6.05;;
65753;SDS011;52488;47.502;18.940;2023-02-13T00:13:11;9.95;;;5.43;;
65753;SDS011;52488;47.502;18.940;2023-02-13T00:14:14;10.52;;;5.40;;
65753;SDS011;52488;47.502;18.940;2023-02-13T00:15:17;10.35;;;6.05;;
65753;SDS011;52488;47.502;18.940;2023-02-13T00:16:20;10.15;;;5.93;;
65753;SDS011;52488;47.502;18.940;2023-02-13T00:17:24;10.25;;;5.62;;
65753;SDS011;52488;47.502;18.940;2023-02-13T00:18:27;10.95;;;5.07;;
65753;SDS011;52488;47.502;18.940;2023-02-13T00:19:32;12.10;;;5.62;;
65753;SDS011;52488;47.502;18.940;2023-02-13T00:20:35;11.12;;;5.97;;
65753;SDS011;52488;47.502;18.940;2023-02-13T00:21:38;11.27;;;5.95;;
65753;SDS011;52488;47.502;18.940;2023-02-13T00:22:41;10.45;;;5.62;;
65753;SDS011;52488;47.502;18.940;2023-02-13T00:23:44;10.43;;;5.30;;
65753;SDS011;52488;47.502;18.940;2023-02-13T00:24:47;9.60;;;5.45;;
65753;SDS011;52488;47.502;18.940;2023-02-13T00:25:49;12.00;;;5.72;;
65753;SDS011;52488;47.502;18.940;2023-02-13T00:26:53;9.40;;;5.28;;
65753;SDS011;52488;47.502;18.940;2023-02-13T00:27:56;10.05;;;5.18;;
65753;SDS011;52488;47.502;18.940;2023-02-13T00:28:59;10.80;;;6.07;;
65753;SDS011;52488;47.502;18.940;2023-02-13T00:30:03;12.20;;;6.12;;
65753;SDS011;52488;47.502;18.940;2023-02-13T00:31:08;12.02;;;5.87;;
65753;SDS011;52488;47.502;18.940;2023-02-13T00:32:12;10.43;;;5.28;;
65753;SDS011;52488;47.502;18.940;2023-02-13T00:33:16;10.65;;;5.57;;
65753;SDS011;52488;47.502;18.940;2023-02-13T00:34:19;9.80;;;5.50;;
65753;SDS011;52488;47.502;18.940;2023-02-13T00:35:22;11.48;;;5.55;;
65753;SDS011;52488;47.502;18.940;2023-02-13T00:36:26;11.20;;;5.55;;
65753;SDS011;52488;47.502;18.940;2023-02-13T00:37:29;11.77;;;5.57;;
65753;SDS011;52488;47.502;18.940;2023-02-13T00:38:33;9.70;;;5.53;;
65753;SDS011;52488;47.502;18.940;2023-02-13T00:39:36;9.25;;;5.15;;
65753;SDS011;52488;47.502;18.940;2023-02-13T00:40:39;9.60;;;5.28;;
65753;SDS011;52488;47.502;18.940;2023-02-13T00:41:42;9.57;;;5.72;;
65753;SDS011;52488;47.502;18.940;2023-02-13T00:42:45;10.60;;;5.45;;
65753;SDS011;52488;47.502;18.940;2023-02-13T00:43:49;9.52;;;5.20;;
65753;SDS011;52488;47.502;18.940;2023-02-13T00:44:52;11.90;;;5.20;;
65753;SDS011;52488;47.502;18.940;2023-02-13T00:45:56;11.40;;;5.57;;
65753;SDS011;52488;47.502;18.940;2023-02-13T00:47:02;8.75;;;5.28;;
65753;SDS011;52488;47.502;18.940;2023-02-13T00:48:05;12.48;;;5.60;;
65753;SDS011;52488;47.502;18.940;2023-02-13T00:49:09;10.07;;;5.15;;
65753;SDS011;52488;47.502;18.940;2023-02-13T00:50:11;13.07;;;5.85;;
65753;SDS011;52488;47.502;18.940;2023-02-13T00:51:14;10.93;;;5.32;;
65753;SDS011;52488;47.502;18.940;2023-02-13T00:52:17;9.93;;;5.12;;
65753;SDS011;52488;47.502;18.940;2023-02-13T00:53:21;8.82;;;5.00;;
65753;SDS011;52488;47.502;18.940;2023-02-13T00:54:26;9.10;;;4.93;;
65753;SDS011;52488;47.502;18.940;2023-02-13T00:55:29;9.52;;;5.28;;
65753;SDS011;52488;47.502;18.940;2023-02-13T00:56:32;9.63;;;4.90;;
65753;SDS011;52488;47.502;18.940;2023-02-13T00:57:36;10.15;;;5.20;;
65753;SDS011;52488;47.502;18.940;2023-02-13T00:58:39;9.93;;;5.00;;
65753;SDS011;52488;47.502;18.940;2023-02-13T00:59:43;11.12;;;5.57;;
65753;SDS011;52488;47.502;18.940;2023-02-13T01:00:46;11.43;;;5.32;;
65753;SDS011;52488;47.502;18.940;2023-02-13T01:01:49;11.25;;;5.50;;
65753;SDS011;52488;47.502;18.940;2023-02-13T01:02:52;10.23;;;5.20;;
65753;SDS011;52488;47.502;18.940;2023-02-13T01:03:55;10.50;;;5.35;;
65753;SDS011;52488;47.502;18.940;2023-02-13T01:04:59;11.48;;;5.18;;
65753;SDS011;52488;47.502;18.940;2023-02-13T01:06:02;9.25;;;5.05;;
65753;SDS011;52488;47.502;18.940;2023-02-13T01:07:05;9.07;;;4.68;;
65753;SDS011;52488;47.502;18.940;2023-02-13T01:08:09;12.43;;;5.78;;
65753;SDS011;52488;47.502;18.940;2023-02-13T01:09:12;8.45;;;4.80;;
65753;SDS011;52488;47.502;18.940;2023-02-13T01:10:16;9.23;;;5.20;;
65753;SDS011;52488;47.502;18.940;2023-02-13T01:11:19;10.48;;;4.95;;
65753;SDS011;52488;47.502;18.940;2023-02-13T01:12:22;8.85;;;4.72;;
65753;SDS011;52488;47.502;18.940;2023-02-13T01:13:25;9.55;;;4.40;;
65753;SDS011;52488;47.502;18.940;2023-02-13T01:14:28;11.02;;;5.50;;
65753;SDS011;52488;47.502;18.940;2023-02-13T01:15:32;9.57;;;4.45;;
65753;SDS011;52488;47.502;18.940;2023-02-13T01:16:35;9.48;;;5.07;;
65753;SDS011;52488;47.502;18.940;2023-02-13T01:17:38;9.32;;;5.37;;
65753;SDS011;52488;47.502;18.940;2023-02-13T01:18:42;8.65;;;4.93;;
65753;SDS011;52488;47.502;18.940;2023-02-13T01:19:46;9.93;;;4.62;;
65753;SDS011;52488;47.502;18.940;2023-02-13T01:20:59;10.32;;;4.97;;
65753;SDS011;52488;47.502;18.940;2023-02-13T01:22:03;10.27;;;5.12;;
65753;SDS011;52488;47.502;18.940;2023-02-13T01:23:06;9.65;;;5.32;;
65753;SDS011;52488;47.502;18.940;2023-02-13T01:24:09;10.07;;;5.25;;
65753;SDS011;52488;47.502;18.940;2023-02-13T01:25:12;11.25;;;5.40;;
65753;SDS011;52488;47.502;18.940;2023-02-13T01:26:17;8.00;;;4.57;;
65753;SDS011;52488;47.502;18.940;2023-02-13T01:27:22;10.57;;;5.53;;
65753;SDS011;52488;47.502;18.940;2023-02-13T01:28:25;9.65;;;5.22;;
65753;SDS011;52488;47.502;18.940;2023-02-13T01:29:28;9.18;;;4.82;;
65753;SDS011;52488;47.502;18.940;2023-02-13T01:30:31;8.70;;;4.40;;
65753;SDS011;52488;47.502;18.940;2023-02-13T01:31:34;11.75;;;5.12;;
65753;SDS011;52488;47.502;18.940;2023-02-13T01:32:40;12.73;;;5.80;;
65753;SDS011;52488;47.502;18.940;2023-02-13T01:33:45;11.75;;;5.62;;
65753;SDS011;52488;47.502;18.940;2023-02-13T01:34:48;10.02;;;5.37;;
65753;SDS011;52488;47.502;18.940;2023-02-13T01:35:51;9.35;;;5.62;;
65753;SDS011;52488;47.502;18.940;2023-02-13T01:36:55;14.63;;;6.03;;
65753;SDS011;52488;47.502;18.940;2023-02-13T01:37:58;10.10;;;5.47;;
65753;SDS011;52488;47.502;18.940;2023-02-13T01:39:01;10.60;;;5.57;;
65753;SDS011;52488;47.502;18.940;2023-02-13T01:40:05;10.05;;;5.87;;
65753;SDS011;52488;47.502;18.940;2023-02-13T01:41:10;10.25;;;5.95;;
65753;SDS011;52488;47.502;18.940;2023-02-13T01:42:20;10.13;;;5.20;;
65753;SDS011;52488;47.502;18.940;2023-02-13T01:43:40;11.20;;;5.37;;
65753;SDS011;52488;47.502;18.940;2023-02-13T01:46:29;10.35;;;5.72;;
65753;SDS011;52488;47.502;18.940;2023-02-13T01:47:45;11.23;;;5.30;;
65753;SDS011;52488;47.502;18.940;2023-02-13T01:48:52;10.10;;;5.50;;
65753;SDS011;52488;47.502;18.940;2023-02-13T01:50:11;9.68;;;5.90;;
65753;SDS011;52488;47.502;18.940;2023-02-13T01:51:20;10.75;;;5.57;;
65753;SDS011;52488;47.502;18.940;2023-02-13T01:52:28;13.52;;;5.70;;
65753;SDS011;52488;47.502;18.940;2023-02-13T01:53:34;14.50;;;6.30;;
65753;SDS011;52488;47.502;18.940;2023-02-13T01:54:46;13.60;;;5.95;;
65753;SDS011;52488;47.502;18.940;2023-02-13T01:55:57;13.00;;;6.37;;
65753;SDS011;52488;47.502;18.940;2023-02-13T01:57:18;14.05;;;6.32;;
65753;SDS011;52488;47.502;18.940;2023-02-13T01:58:26;14.75;;;7.30;;
65753;SDS011;52488;47.502;18.940;2023-02-13T01:59:36;13.88;;;6.37;;
65753;SDS011;52488;47.502;18.940;2023-02-13T02:00:57;13.55;;;5.75;;
65753;SDS011;52488;47.502;18.940;2023-02-13T02:02:01;10.18;;;5.80;;
65753;SDS011;52488;47.502;18.940;2023-02-13T02:03:15;12.55;;;6.80;;
65753;SDS011;52488;47.502;18.940;2023-02-13T02:04:30;13.15;;;6.12;;
65753;SDS011;52488;47.502;18.940;2023-02-13T02:05:35;15.77;;;7.10;;
65753;SDS011;52488;47.502;18.940;2023-02-13T02:06:42;16.08;;;8.20;;
65753;SDS011;52488;47.502;18.940;2023-02-13T02:07:49;18.60;;;8.35;;
65753;SDS011;52488;47.502;18.940;2023-02-13T02:08:53;16.98;;;7.70;;
65753;SDS011;52488;47.502;18.940;2023-02-13T02:10:04;16.12;;;7.53;;
65753;SDS011;52488;47.502;18.940;2023-02-13T02:11:26;14.65;;;6.82;;
65753;SDS011;52488;47.502;18.940;2023-02-13T02:13:57;16.60;;;6.68;;
65753;SDS011;52488;47.502;18.940;2023-02-13T02:15:02;16.83;;;7.10;;
65753;SDS011;52488;47.502;18.940;2023-02-13T02:16:07;11.80;;;5.70;;
65753;SDS011;52488;47.502;18.940;2023-02-13T02:17:10;12.37;;;6.12;;
65753;SDS011;52488;47.502;18.940;2023-02-13T02:18:15;11.15;;;6.55;;
65753;SDS011;52488;47.502;18.940;2023-02-13T02:30:59;14.82;;;7.22;;
65753;SDS011;52488;47.502;18.940;2023-02-13T02:32:18;14.85;;;7.15;;
65753;SDS011;52488;47.502;18.940;2023-02-13T02:34:08;14.52;;;7.12;;
65753;SDS011;52488;47.502;18.940;2023-02-13T02:36:43;14.32;;;6.40;;
65753;SDS011;52488;47.502;18.940;2023-02-13T02:39:13;13.75;;;6.90;;
65753;SDS011;52488;47.502;18.940;2023-02-13T02:43:08;16.17;;;6.50;;
65753;SDS011;52488;47.502;18.940;2023-02-13T02:44:44;12.82;;;5.65;;
65753;SDS011;52488;47.502;18.940;2023-02-13T02:49:48;12.57;;;6.47;;
65753;SDS011;52488;47.502;18.940;2023-02-13T02:51:10;15.43;;;6.90;;
65753;SDS011;52488;47.502;18.940;2023-02-13T02:52:23;15.02;;;7.03;;
65753;SDS011;52488;47.502;18.940;2023-02-13T02:54:50;10.95;;;5.82;;
65753;SDS011;52488;47.502;18.940;2023-02-13T02:56:37;15.88;;;6.55;;
65753;SDS011;52488;47.502;18.940;2023-02-13T02:57:51;10.35;;;6.15;;
65753;SDS011;52488;47.502;18.940;2023-02-13T02:59:25;16.05;;;6.50;;
65753;SDS011;52488;47.502;18.940;2023-02-13T03:00:50;16.80;;;7.20;;
65753;SDS011;52488;47.502;18.940;2023-02-13T03:02:14;12.80;;;7.25;;
65753;SDS011;52488;47.502;18.940;2023-02-13T03:03:37;13.62;;;6.70;;
65753;SDS011;52488;47.502;18.940;2023-02-13T03:04:59;16.42;;;7.15;;
65753;SDS011;52488;47.502;18.940;2023-02-13T03:06:31;15.07;;;7.30;;
65753;SDS011;52488;47.502;18.940;2023-02-13T03:07:35;12.32;;;6.70;;
65753;SDS011;52488;47.502;18.940;2023-02-13T03:08:43;14.50;;;6.62;;
65753;SDS011;52488;47.502;18.940;2023-02-13T03:10:12;11.95;;;6.47;;
65753;SDS011;52488;47.502;18.940;2023-02-13T03:11:42;13.23;;;6.30;;
65753;SDS011;52488;47.502;18.940;2023-02-13T03:13:13;15.20;;;7.55;;
65753;SDS011;52488;47.502;18.940;2023-02-13T03:14:30;21.62;;;8.88;;
65753;SDS011;52488;47.502;18.940;2023-02-13T03:15:34;17.00;;;7.15;;
65753;SDS011;52488;47.502;18.940;2023-02-13T03:16:59;15.35;;;7.40;;
65753;SDS011;52488;47.502;18.940;2023-02-13T03:18:22;16.37;;;7.20;;
65753;SDS011;52488;47.502;18.940;2023-02-13T03:19:48;16.90;;;8.18;;
65753;SDS011;52488;47.502;18.940;2023-02-13T03:21:18;13.73;;;6.72;;
65753;SDS011;52488;47.502;18.940;2023-02-13T03:23:14;18.02;;;7.22;;
65753;SDS011;52488;47.502;18.940;2023-02-13T03:25:06;15.88;;;7.37;;
65753;SDS011;52488;47.502;18.940;2023-02-13T03:34:59;14.25;;;6.50;;
65753;SDS011;52488;47.502;18.940;2023-02-13T03:36:34;15.77;;;7.47;;
65753;SDS011;52488;47.502;18.940;2023-02-13T03:37:59;19.67;;;8.65;;
65753;SDS011;52488;47.502;18.940;2023-02-13T03:40:42;16.40;;;7.78;;
65753;SDS011;52488;47.502;18.940;2023-02-13T03:43:35;14.35;;;7.65;;
65753;SDS011;52488;47.502;18.940;2023-02-13T03:44:49;14.60;;;6.68;;
65753;SDS011;52488;47.502;18.940;2023-02-13T03:46:17;15.32;;;7.95;;
65753;SDS011;52488;47.502;18.940;2023-02-13T03:47:21;13.30;;;6.95;;
65753;SDS011;52488;47.502;18.940;2023-02-13T03:48:34;16.00;;;7.20;;
65753;SDS011;52488;47.502;18.940;2023-02-13T03:50:00;12.88;;;6.95;;
65753;SDS011;52488;47.502;18.940;2023-02-13T03:51:07;19.08;;;7.25;;
65753;SDS011;52488;47.502;18.940;2023-02-13T03:53:20;16.92;;;7.90;;
65753;SDS011;52488;47.502;18.940;2023-02-13T03:55:50;16.27;;;7.62;;
65753;SDS011;52488;47.502;18.940;2023-02-13T03:57:14;17.33;;;7.75;;
65753;SDS011;52488;47.502;18.940;2023-02-13T03:58:41;16.10;;;7.20;;
65753;SDS011;52488;47.502;18.940;2023-02-13T04:00:09;15.23;;;7.55;;
65753;SDS011;52488;47.502;18.940;2023-02-13T04:01:14;15.63;;;7.45;;
65753;SDS011;52488;47.502;18.940;2023-02-13T04:02:22;18.40;;;7.53;;
65753;SDS011;52488;47.502;18.940;2023-02-13T04:05:05;16.80;;;7.72;;
65753;SDS011;52488;47.502;18.940;2023-02-13T04:06:15;14.63;;;7.30;;
65753;SDS011;52488;47.502;18.940;2023-02-13T04:07:23;18.98;;;8.30;;
65753;SDS011;52488;47.502;18.940;2023-02-13T04:08:34;16.17;;;7.55;;
65753;SDS011;52488;47.502;18.940;2023-02-13T04:09:38;15.30;;;8.02;;
65753;SDS011;52488;47.502;18.940;2023-02-13T04:10:52;16.98;;;7.80;;
65753;SDS011;52488;47.502;18.940;2023-02-13T04:12:05;14.60;;;7.47;;
65753;SDS011;52488;47.502;18.940;2023-02-13T04:13:26;18.10;;;8.57;;
65753;SDS011;52488;47.502;18.940;2023-02-13T04:14:37;19.08;;;8.43;;
65753;SDS011;52488;47.502;18.940;2023-02-13T04:17:01;17.55;;;8.32;;
65753;SDS011;52488;47.502;18.940;2023-02-13T04:19:20;18.87;;;8.75;;
65753;SDS011;52488;47.502;18.940;2023-02-13T04:20:26;17.75;;;9.07;;
65753;SDS011;52488;47.502;18.940;2023-02-13T04:21:37;20.45;;;8.85;;
65753;SDS011;52488;47.502;18.940;2023-02-13T04:22:45;21.58;;;9.77;;
65753;SDS011;52488;47.502;18.940;2023-02-13T04:23:49;17.92;;;9.32;;
65753;SDS011;52488;47.502;18.940;2023-02-13T04:24:51;20.77;;;10.30;;
65753;SDS011;52488;47.502;18.940;2023-02-13T04:26:01;20.33;;;8.95;;
65753;SDS011;52488;47.502;18.940;2023-02-13T04:27:09;23.35;;;10.23;;
65753;SDS011;52488;47.502;18.940;2023-02-13T04:28:16;24.58;;;10.18;;
65753;SDS011;52488;47.502;18.940;2023-02-13T04:29:20;21.42;;;10.32;;
65753;SDS011;52488;47.502;18.940;2023-02-13T04:30:25;22.60;;;10.13;;
65753;SDS011;52488;47.502;18.940;2023-02-13T04:31:28;23.70;;;11.10;;
65753;SDS011;52488;47.502;18.940;2023-02-13T04:32:31;26.90;;;10.88;;
65753;SDS011;52488;47.502;18.940;2023-02-13T04:33:34;20.62;;;9.77;;
65753;SDS011;52488;47.502;18.940;2023-02-13T04:34:37;23.90;;;11.15;;
65753;SDS011;52488;47.502;18.940;2023-02-13T04:35:40;22.83;;;11.15;;
65753;SDS011;52488;47.502;18.940;2023-02-13T04:36:43;25.98;;;11.30;;
65753;SDS011;52488;47.502;18.940;2023-02-13T04:37:47;24.58;;;11.75;;
65753;SDS011;52488;47.502;18.940;2023-02-13T04:38:50;24.65;;;10.75;;
65753;SDS011;52488;47.502;18.940;2023-02-13T04:39:53;21.48;;;10.80;;
65753;SDS011;52488;47.502;18.940;2023-02-13T04:40:56;25.75;;;11.50;;
65753;SDS011;52488;47.502;18.940;2023-02-13T04:42:00;23.62;;;10.60;;
65753;SDS011;52488;47.502;18.940;2023-02-13T04:43:03;22.77;;;10.98;;
65753;SDS011;52488;47.502;18.940;2023-02-13T04:44:06;21.27;;;10.65;;
65753;SDS011;52488;47.502;18.940;2023-02-13T04:45:09;25.25;;;11.27;;
65753;SDS011;52488;47.502;18.940;2023-02-13T04:46:12;23.25;;;11.07;;
65753;SDS011;52488;47.502;18.940;2023-02-13T04:47:15;21.45;;;11.18;;
65753;SDS011;52488;47.502;18.940;2023-02-13T04:48:19;22.85;;;10.27;;
65753;SDS011;52488;47.502;18.940;2023-02-13T04:49:22;20.83;;;10.27;;
65753;SDS011;52488;47.502;18.940;2023-02-13T04:50:25;20.83;;;9.55;;
65753;SDS011;52488;47.502;18.940;2023-02-13T04:51:28;19.50;;;9.93;;
65753;SDS011;52488;47.502;18.940;2023-02-13T04:52:31;24.10;;;10.95;;
65753;SDS011;52488;47.502;18.940;2023-02-13T04:53:34;21.27;;;11.07;;
65753;SDS011;52488;47.502;18.940;2023-02-13T04:54:37;24.52;;;11.10;;
65753;SDS011;52488;47.502;18.940;2023-02-13T04:55:40;24.17;;;10.98;;
65753;SDS011;52488;47.502;18.940;2023-02-13T04:56:43;26.52;;;11.80;;
65753;SDS011;52488;47.502;18.940;2023-02-13T04:57:46;24.05;;;11.32;;
65753;SDS011;52488;47.502;18.940;2023-02-13T04:58:49;27.23;;;12.75;;
65753;SDS011;52488;47.502;18.940;2023-02-13T04:59:52;29.12;;;12.10;;
65753;SDS011;52488;47.502;18.940;2023-02-13T05:00:55;27.95;;;11.98;;
65753;SDS011;52488;47.502;18.940;2023-02-13T05:01:59;22.60;;;11.00;;
65753;SDS011;52488;47.502;18.940;2023-02-13T05:03:05;26.23;;;11.88;;
65753;SDS011;52488;47.502;18.940;2023-02-13T05:04:09;21.23;;;10.95;;
65753;SDS011;52488;47.502;18.940;2023-02-13T05:05:17;24.52;;;10.50;;
65753;SDS011;52488;47.502;18.940;2023-02-13T05:06:21;22.83;;;11.45;;
65753;SDS011;52488;47.502;18.940;2023-02-13T05:07:24;24.12;;;12.18;;
65753;SDS011;52488;47.502;18.940;2023-02-13T05:08:27;24.77;;;11.85;;
65753;SDS011;52488;47.502;18.940;2023-02-13T05:09:30;26.55;;;11.80;;
65753;SDS011;52488;47.502;18.940;2023-02-13T05:10:33;23.75;;;11.05;;
65753;SDS011;52488;47.502;18.940;2023-02-13T05:11:37;25.92;;;11.88;;
65753;SDS011;52488;47.502;18.940;2023-02-13T05:12:40;23.70;;;11.75;;
65753;SDS011;52488;47.502;18.940;2023-02-13T05:13:43;22.73;;;11.02;;
65753;SDS011;52488;47.502;18.940;2023-02-13T05:14:46;29.83;;;12.23;;
65753;SDS011;52488;47.502;18.940;2023-02-13T05:15:49;26.42;;;11.50;;
65753;SDS011;52488;47.502;18.940;2023-02-13T05:16:54;26.48;;;12.52;;
65753;SDS011;52488;47.502;18.940;2023-02-13T05:17:57;23.08;;;11.65;;
65753;SDS011;52488;47.502;18.940;2023-02-13T05:19:00;24.37;;;11.00;;
65753;SDS011;52488;47.502;18.940;2023-02-13T05:20:04;27.67;;;12.20;;
65753;SDS011;52488;47.502;18.940;2023-02-13T05:21:08;25.23;;;11.63;;
65753;SDS011;52488;47.502;18.940;2023-02-13T05:22:29;22.60;;;11.88;;
65753;SDS011;52488;47.502;18.940;2023-02-13T05:23:51;24.55;;;12.50;;
65753;SDS011;52488;47.502;18.940;2023-02-13T05:24:54;23.75;;;11.32;;
65753;SDS011;52488;47.502;18.940;2023-02-13T05:25:57;26.42;;;11.93;;
65753;SDS011;52488;47.502;18.940;2023-02-13T05:27:00;24.83;;;11.82;;
65753;SDS011;52488;47.502;18.940;2023-02-13T05:28:04;25.15;;;11.75;;
65753;SDS011;52488;47.502;18.940;2023-02-13T05:29:28;26.25;;;11.48;;
65753;SDS011;52488;47.502;18.940;2023-02-13T05:30:31;26.75;;;12.85;;
65753;SDS011;52488;47.502;18.940;2023-02-13T05:31:34;25.00;;;11.65;;
65753;SDS011;52488;47.502;18.940;2023-02-13T05:32:37;23.20;;;11.88;;
65753;SDS011;52488;47.502;18.940;2023-02-13T05:33:40;26.67;;;12.50;;
65753;SDS011;52488;47.502;18.940;2023-02-13T05:34:44;24.75;;;12.05;;
65753;SDS011;52488;47.502;18.940;2023-02-13T05:35:47;25.15;;;11.32;;
65753;SDS011;52488;47.502;18.940;2023-02-13T05:36:50;27.17;;;12.02;;
65753;SDS011;52488;47.502;18.940;2023-02-13T05:37:53;28.50;;;13.05;;
65753;SDS011;52488;47.502;18.940;2023-02-13T05:38:56;25.58;;;11.90;;
65753;SDS011;52488;47.502;18.940;2023-02-13T05:39:59;27.73;;;12.35;;
65753;SDS011;52488;47.502;18.940;2023-02-13T05:41:02;23.25;;;11.80;;
65753;SDS011;52488;47.502;18.940;2023-02-13T05:42:05;22.90;;;11.18;;
65753;SDS011;52488;47.502;18.940;2023-02-13T05:43:08;32.08;;;12.77;;
65753;SDS011;52488;47.502;18.940;2023-02-13T05:44:12;24.65;;;11.25;;
65753;SDS011;52488;47.502;18.940;2023-02-13T05:45:15;24.73;;;11.48;;
65753;SDS011;52488;47.502;18.940;2023-02-13T05:46:18;22.33;;;10.68;;
65753;SDS011;52488;47.502;18.940;2023-02-13T05:47:21;22.13;;;10.65;;
65753;SDS011;52488;47.502;18.940;2023-02-13T05:48:24;21.98;;;11.57;;
65753;SDS011;52488;47.502;18.940;2023-02-13T05:49:27;26.60;;;10.73;;
65753;SDS011;52488;47.502;18.940;2023-02-13T05:50:30;23.60;;;11.30;;
65753;SDS011;52488;47.502;18.940;2023-02-13T05:51:33;23.60;;;11.90;;
65753;SDS011;52488;47.502;18.940;2023-02-13T05:52:36;25.20;;;11.85;;
65753;SDS011;52488;47.502;18.940;2023-02-13T05:53:39;23.60;;;11.23;;
65753;SDS011;52488;47.502;18.940;2023-02-13T05:54:42;22.80;;;11.45;;
65753;SDS011;52488;47.502;18.940;2023-02-13T05:55:46;24.10;;;10.90;;
65753;SDS011;52488;47.502;18.940;2023-02-13T05:56:49;23.87;;;11.60;;
65753;SDS011;52488;47.502;18.940;2023-02-13T05:57:55;23.80;;;10.93;;
65753;SDS011;52488;47.502;18.940;2023-02-13T05:58:59;25.48;;;11.93;;
65753;SDS011;52488;47.502;18.940;2023-02-13T06:00:02;24.27;;;12.02;;
65753;SDS011;52488;47.502;18.940;2023-02-13T06:01:06;28.73;;;12.57;;
65753;SDS011;52488;47.502;18.940;2023-02-13T06:02:09;24.73;;;11.98;;
65753;SDS011;52488;47.502;18.940;2023-02-13T06:03:13;28.05;;;12.55;;
65753;SDS011;52488;47.502;18.940;2023-02-13T06:04:16;27.67;;;11.73;;
65753;SDS011;52488;47.502;18.940;2023-02-13T06:05:19;27.92;;;11.93;;
65753;SDS011;52488;47.502;18.940;2023-02-13T06:06:22;26.15;;;11.68;;
65753;SDS011;52488;47.502;18.940;2023-02-13T06:07:26;25.60;;;11.40;;
65753;SDS011;52488;47.502;18.940;2023-02-13T06:08:29;26.30;;;12.07;;
65753;SDS011;52488;47.502;18.940;2023-02-13T06:09:32;25.30;;;11.60;;
65753;SDS011;52488;47.502;18.940;2023-02-13T06:10:36;26.45;;;12.55;;
65753;SDS011;52488;47.502;18.940;2023-02-13T06:11:39;24.77;;;11.98;;
65753;SDS011;52488;47.502;18.940;2023-02-13T06:12:42;25.77;;;11.73;;
65753;SDS011;52488;47.502;18.940;2023-02-13T06:13:45;25.40;;;12.40;;
65753;SDS011;52488;47.502;18.940;2023-02-13T06:14:48;26.37;;;11.50;;
65753;SDS011;52488;47.502;18.940;2023-02-13T06:15:51;25.83;;;11.02;;
65753;SDS011;52488;47.502;18.940;2023-02-13T06:16:54;30.85;;;12.73;;
65753;SDS011;52488;47.502;18.940;2023-02-13T06:17:57;22.58;;;11.18;;
65753;SDS011;52488;47.502;18.940;2023-02-13T06:19:00;26.23;;;12.37;;
65753;SDS011;52488;47.502;18.940;2023-02-13T06:20:04;24.87;;;11.70;;
65753;SDS011;52488;47.502;18.940;2023-02-13T06:21:08;28.12;;;11.95;;
65753;SDS011;52488;47.502;18.940;2023-02-13T06:22:11;26.15;;;12.45;;
65753;SDS011;52488;47.502;18.940;2023-02-13T06:23:15;26.55;;;12.05;;
65753;SDS011;52488;47.502;18.940;2023-02-13T06:24:18;26.73;;;12.10;;
65753;SDS011;52488;47.502;18.940;2023-02-13T06:25:21;27.58;;;12.73;;
65753;SDS011;52488;47.502;18.940;2023-02-13T06:26:24;24.30;;;10.82;;
65753;SDS011;52488;47.502;18.940;2023-02-13T06:27:27;23.52;;;11.30;;
65753;SDS011;52488;47.502;18.940;2023-02-13T06:28:30;25.27;;;11.70;;
65753;SDS011;52488;47.502;18.940;2023-02-13T06:29:33;25.65;;;11.15;;
65753;SDS011;52488;47.502;18.940;2023-02-13T06:30:36;21.17;;;10.80;;
65753;SDS011;52488;47.502;18.940;2023-02-13T06:31:39;25.20;;;11.23;;
65753;SDS011;52488;47.502;18.940;2023-02-13T06:32:42;26.17;;;11.90;;
65753;SDS011;52488;47.502;18.940;2023-02-13T06:33:47;25.08;;;11.73;;
65753;SDS011;52488;47.502;18.940;2023-02-13T06:34:50;24.12;;;11.12;;
65753;SDS011;52488;47.502;18.940;2023-02-13T06:35:53;26.87;;;11.82;;
65753;SDS011;52488;47.502;18.940;2023-02-13T06:36:56;23.80;;;10.52;;
65753;SDS011;52488;47.502;18.940;2023-02-13T06:37:59;25.80;;;11.80;;
65753;SDS011;52488;47.502;18.940;2023-02-13T06:39:02;24.98;;;10.85;;
65753;SDS011;52488;47.502;18.940;2023-02-13T06:40:06;20.12;;;10.07;;
65753;SDS011;52488;47.502;18.940;2023-02-13T06:41:10;22.10;;;10.82;;
65753;SDS011;52488;47.502;18.940;2023-02-13T06:42:13;20.33;;;10.23;;
65753;SDS011;52488;47.502;18.940;2023-02-13T06:43:16;20.67;;;9.73;;
65753;SDS011;52488;47.502;18.940;2023-02-13T06:44:19;24.60;;;11.80;;
65753;SDS011;52488;47.502;18.940;2023-02-13T06:45:22;23.87;;;10.32;;
65753;SDS011;52488;47.502;18.940;2023-02-13T06:46:25;21.52;;;10.65;;
65753;SDS011;52488;47.502;18.940;2023-02-13T06:47:28;22.58;;;10.20;;
65753;SDS011;52488;47.502;18.940;2023-02-13T06:48:31;21.62;;;10.85;;
65753;SDS011;52488;47.502;18.940;2023-02-13T06:49:35;25.60;;;12.13;;
65753;SDS011;52488;47.502;18.940;2023-02-13T06:50:38;21.73;;;10.65;;
65753;SDS011;52488;47.502;18.940;2023-02-13T06:51:41;23.95;;;11.05;;
65753;SDS011;52488;47.502;18.940;2023-02-13T06:52:45;23.33;;;10.90;;
65753;SDS011;52488;47.502;18.940;2023-02-13T06:53:52;24.63;;;11.10;;
65753;SDS011;52488;47.502;18.940;2023-02-13T06:54:55;25.48;;;11.07;;
65753;SDS011;52488;47.502;18.940;2023-02-13T06:55:58;30.48;;;12.00;;
65753;SDS011;52488;47.502;18.940;2023-02-13T06:57:06;24.60;;;11.12;;
65753;SDS011;52488;47.502;18.940;2023-02-13T06:58:10;24.27;;;11.82;;
65753;SDS011;52488;47.502;18.940;2023-02-13T06:59:13;25.77;;;11.12;;
65753;SDS011;52488;47.502;18.940;2023-02-13T07:00:16;24.20;;;11.23;;
65753;SDS011;52488;47.502;18.940;2023-02-13T07:01:20;25.95;;;11.32;;
65753;SDS011;52488;47.502;18.940;2023-02-13T07:02:23;25.73;;;11.30;;
65753;SDS011;52488;47.502;18.940;2023-02-13T07:03:26;22.33;;;10.63;;
65753;SDS011;52488;47.502;18.940;2023-02-13T07:04:29;22.23;;;11.65;;
65753;SDS011;52488;47.502;18.940;2023-02-13T07:05:32;24.20;;;10.32;;
65753;SDS011;52488;47.502;18.940;2023-02-13T07:06:35;26.73;;;11.70;;
65753;SDS011;52488;47.502;18.940;2023-02-13T07:07:39;21.52;;;10.27;;
65753;SDS011;52488;47.502;18.940;2023-02-13T07:08:43;22.37;;;11.02;;
65753;SDS011;52488;47.502;18.940;2023-02-13T07:09:46;22.50;;;9.85;;
65753;SDS011;52488;47.502;18.940;2023-02-13T07:10:49;29.25;;;11.43;;
65753;SDS011;52488;47.502;18.940;2023-02-13T07:11:52;21.87;;;10.77;;
65753;SDS011;52488;47.502;18.940;2023-02-13T07:12:56;26.52;;;11.18;;